Terminal Aerodrome Forecast
Issued by NWS

Home | Current Version | Previous Version | Text Only | Print | Product List | Glossary On
Versions: 1 2 3 4 5 6 7 8 9 10 11 12 13
701
FTUS45 KREV 182321
TAFMMH
TAF
KMMH 182321Z 1900/1924 26038G52KT P6SM SCT100
     FM190400 25026G42KT P6SM VCSH BKN040
     FM190900 28020G30KT P6SM VCSH SCT030 BKN050
     FM192000 30015G22KT P6SM VCSH SCT040 BKN060=

USA.gov is the U.S. government's official web portal to all federal, state and local government web resources and services.